Big Brook, Canada
Current Conditions -  °F | °C
As of 1:51 AM on Tuesday 21 Oct 2014 (Local Time) from CYAY Reporting Station
Light Rain Light Rain  
Wind Chill: -1°   Ceiling: 3000
Heat Index:   Visibility: 8mi
Dew Point:   Wind: 30mph
Humidity: 87%   Direction: 240°WSW
Pressure: 29.19"   Gusts: 46mph
Location:  51.51°N, 56.14°W
Report Text: CYAY 210351Z AUTO 24026G40KT 8SM -RA FEW022 OVC030 05/03 A2919 RMK PRESRR SLP886
Loading
Personal Weather Stations






























Interactive Weather Map
Tropical Storm Tracking
New forecast layout! Learn more

10-Day Weather Forecast

Advertisements
Track Severe Weather on mobile